Lake Park, FL (33403)

3:54 PM EDT on July 28, 2016 (GMT -0400)
Rybovich Boat Company | | Change Station

Elev 10 ft 26.75 °N, 80.05 °W | Updated 38 seconds ago

Partly Cloudy
Partly Cloudy
86.7 °F
Feels Like 99 °F
N
6.8
Wind Variable Wind from ESE
Gusts 11.0 mph

Today
High -- | Low -- °F
--% Chance of Precip.
Yesterday
High -- | Low -- °F
Precip. -- in
Pressure 30.05 in
Visibility 10.0 miles
Clouds Few 3500 ft
Few 22000 ft
Heat Index 99 °F
Dew Point 77 °F
Humidity 74%
Rainfall 0.00 in
Snow Depth Not available.
6:43 AM 8:10 PM
Waning Crescent, 29% visible
METAR KPBI 281853Z 13011KT 10SM FEW035 FEW220 33/23 A3005 RMK AO2 SLP174 T03330228
Pressure 30.05 in
Visibility 10.0 miles
Clouds Few 3500 ft
Few 22000 ft
Heat Index 99 °F
Dew Point 77 °F
Humidity 74%
Rainfall 0.00 in
Snow Depth Not available.
6:43 AM 8:10 PM
Waning Crescent, 29% visible
METAR KPBI 281853Z 13011KT 10SM FEW035 FEW220 33/23 A3005 RMK AO2 SLP174 T03330228

10-Day Weather Forecast

Almanac

Astronomy

Jul. 28, 2016 Rise Set
Actual Time
Civil Twilight
Nautical Twilight
Astronomical Twilight
Moon
Length of Visible Light
Length of Day
Tomorrow will be .
, % of the Moon is Illuminated

Today's Extremes

State Highs State Lows

Community

WunderPhotos

Upload Photos

1,928,194 photos uploaded!

WunderBlog® & News

Nearby

Air Quality

  Air Quality AQ Index Pollutant
Not available.

Snow Depth

Station Depth Elevation

Earthquake Activity

City Distance Mag. Time & Date
Minimum magnitude displayed is 2.5.

Coastal Water Temperatures

Place Temperature

Stations

Nearby Weather Stations

Station Location Temp. Windchill Dew Point Humidity Wind Precip. Elev Updated Type
                   

Watches & Warnings

There are currently no watches in effect.